createdAt,value
2019-06-27T00:02:07.090Z,99896.52
2019-06-27T00:04:35.484Z,99901.48
2019-06-27T00:07:03.943Z,99900.34
2019-06-27T00:09:32.360Z,99900.34
2019-06-27T00:12:00.916Z,99907.29
2019-06-27T00:14:29.317Z,99912.94
2019-06-27T00:16:57.794Z,99904.33
2019-06-27T00:19:27.375Z,99907.61
2019-06-27T00:21:55.763Z,99912.25
2019-06-27T00:24:24.173Z,99914.99
2019-06-27T00:26:57.266Z,99913.84
2019-06-27T00:29:22.742Z,99922.75
2019-06-27T00:31:51.187Z,99923.66
2019-06-27T00:34:19.687Z,99927.09
2019-06-27T00:36:48.553Z,99922.51
2019-06-27T00:39:16.951Z,99932.45
2019-06-27T00:41:45.370Z,99928.32
2019-06-27T00:44:13.922Z,99926.75
2019-06-27T00:46:42.377Z,99926.13
2019-06-27T00:49:10.789Z,99928.93
2019-06-27T00:51:39.208Z,99926.11
2019-06-27T00:54:07.627Z,99924.56
2019-06-27T00:56:36.206Z,99925.13
2019-06-27T00:59:04.648Z,99932.77
2019-06-27T01:01:33.047Z,99929.03
2019-06-27T01:04:01.450Z,99938.12
2019-06-27T01:06:29.899Z,99931.04
2019-06-27T01:08:58.322Z,99928.39
2019-06-27T01:11:26.786Z,99933.91
2019-06-27T01:13:55.215Z,99937.97
2019-06-27T01:16:23.804Z,99936.29
2019-06-27T01:18:52.239Z,99941.03
2019-06-27T01:21:20.662Z,99930.08
2019-06-27T01:23:49.120Z,99936.33
2019-06-27T01:26:17.646Z,99925.49
2019-06-27T01:28:46.319Z,99927.19
2019-06-27T01:31:14.744Z,99940.73
2019-06-27T01:33:43.168Z,99926.55
2019-06-27T01:36:11.629Z,99932.42
2019-06-27T01:38:40.233Z,99933.23
2019-06-27T01:41:08.684Z,99936.28
2019-06-27T01:43:37.195Z,99924.85
2019-06-27T01:46:05.844Z,99933.02
2019-06-27T01:48:34.305Z,99933.13
2019-06-27T01:51:02.789Z,99941.11
2019-06-27T01:53:31.194Z,99935.33
2019-06-27T01:55:59.638Z,99939.40
2019-06-27T01:58:28.040Z,99932.86
2019-06-27T02:00:56.545Z,99936.55
2019-06-27T02:03:25.590Z,99938.31
2019-06-27T02:05:53.999Z,99944.16
2019-06-27T02:08:22.630Z,99944.16
2019-06-27T02:10:51.035Z,99949.69
2019-06-27T02:13:19.467Z,99950.61
2019-06-27T02:15:48.046Z,99951.09
2019-06-27T02:18:16.541Z,99951.38
2019-06-27T02:20:44.978Z,99944.03
2019-06-27T02:23:15.862Z,99940.53
2019-06-27T02:25:43.537Z,99941.92
2019-06-27T02:28:11.959Z,99935.66
2019-06-27T02:30:42.549Z,99938.88
2019-06-27T02:33:11.194Z,99939.08
2019-06-27T02:35:39.764Z,99943.25
2019-06-27T02:38:08.275Z,99940.45
2019-06-27T02:40:36.967Z,99937.16
2019-06-27T02:43:05.763Z,99935.56
2019-06-27T02:45:34.384Z,99947.03
2019-06-27T02:48:02.846Z,99947.58
2019-06-27T02:50:31.336Z,99949.36
2019-06-27T02:52:59.776Z,99954.67
2019-06-27T02:55:28.262Z,99953.00
2019-06-27T02:57:56.696Z,99956.00
2019-06-27T03:00:25.189Z,99949.66
2019-06-27T03:02:53.976Z,99955.50
2019-06-27T03:05:23.377Z,99957.23
2019-06-27T03:07:51.805Z,99948.55
2019-06-27T03:10:20.763Z,99963.77
2019-06-27T03:12:49.175Z,99963.55
2019-06-27T03:15:17.692Z,99955.16
2019-06-27T03:17:46.125Z,99963.77
2019-06-27T03:20:14.727Z,99953.18
2019-06-27T03:22:43.115Z,99956.16
2019-06-27T03:25:11.651Z,99961.81
2019-06-27T03:27:40.071Z,99968.73
2019-06-27T03:30:08.486Z,99960.63
2019-06-27T03:32:36.971Z,99966.81
2019-06-27T03:35:06.577Z,99970.80
2019-06-27T03:37:35.064Z,99977.06
2019-06-27T03:40:05.609Z,99975.19
2019-06-27T03:42:34.067Z,99976.19
2019-06-27T03:45:02.882Z,99985.80
2019-06-27T03:47:31.488Z,99980.55
2019-06-27T03:49:59.999Z,99984.48
2019-06-27T03:52:28.524Z,99987.41
2019-06-27T03:54:57.001Z,99994.14
2019-06-27T03:57:25.444Z,99989.96
2019-06-27T03:59:53.848Z,99985.59
2019-06-27T04:02:22.431Z,99986.56
2019-06-27T04:04:50.845Z,99985.34
2019-06-27T04:07:19.279Z,99996.66
2019-06-27T04:09:47.722Z,99997.03
2019-06-27T04:12:16.135Z,99995.09
2019-06-27T04:14:44.554Z,99992.27
2019-06-27T04:17:13.011Z,99999.00
2019-06-27T04:19:41.520Z,99990.77
2019-06-27T04:22:09.944Z,99987.59
2019-06-27T04:24:38.366Z,99995.22
2019-06-27T04:27:06.966Z,99986.77
2019-06-27T04:29:35.427Z,99988.58
2019-06-27T04:32:03.870Z,99998.66
2019-06-27T04:34:32.279Z,99993.20
2019-06-27T04:37:00.715Z,99999.91
2019-06-27T04:39:29.252Z,100003.66
2019-06-27T04:41:57.675Z,99994.73
2019-06-27T04:44:26.127Z,99998.98
2019-06-27T04:46:54.547Z,100004.55
2019-06-27T04:49:24.552Z,100010.73
2019-06-27T04:51:55.455Z,100008.69
2019-06-27T04:54:24.126Z,100005.72
2019-06-27T04:56:52.590Z,100012.44
2019-06-27T04:59:21.772Z,100013.09
2019-06-27T05:01:50.329Z,100005.26
2019-06-27T05:04:18.775Z,100003.77
2019-06-27T05:06:47.185Z,100003.77
2019-06-27T05:09:16.661Z,100001.62
2019-06-27T05:11:46.024Z,100008.09
2019-06-27T05:14:14.457Z,100007.63
2019-06-27T05:16:42.903Z,100014.20
2019-06-27T05:19:11.391Z,100008.72
2019-06-27T05:21:39.815Z,100008.35
2019-06-27T05:24:08.285Z,100018.19
2019-06-27T05:26:36.711Z,100017.56
2019-06-27T05:29:05.126Z,100016.55
2019-06-27T05:31:33.582Z,100028.41
2019-06-27T05:34:02.030Z,100016.40
2019-06-27T05:36:30.444Z,100020.42
2019-06-27T05:38:58.853Z,100020.56
2019-06-27T05:41:27.305Z,100020.36
2019-06-27T05:43:55.725Z,100014.37
2019-06-27T05:46:24.192Z,100016.86
2019-06-27T05:48:52.567Z,100024.66
2019-06-27T05:51:21.026Z,100021.77
2019-06-27T05:53:49.454Z,100024.44
2019-06-27T05:56:17.874Z,100028.22
2019-06-27T05:58:46.316Z,100028.88
2019-06-27T06:01:14.741Z,100031.80
2019-06-27T06:03:43.189Z,100036.09
2019-06-27T06:06:11.992Z,100029.62
2019-06-27T06:08:40.602Z,100033.77
2019-06-27T06:11:09.083Z,100034.55
2019-06-27T06:13:37.499Z,100027.59
2019-06-27T06:16:05.976Z,100030.45
2019-06-27T06:18:34.383Z,100023.35
2019-06-27T06:21:02.797Z,100031.64
2019-06-27T06:23:31.223Z,100029.69
2019-06-27T06:25:59.925Z,100037.08
2019-06-27T06:28:28.487Z,100031.00
2019-06-27T06:30:57.998Z,100033.22
2019-06-27T06:33:26.920Z,100045.41
2019-06-27T06:35:55.575Z,100045.89
2019-06-27T06:38:26.921Z,100048.73
2019-06-27T06:40:55.414Z,100053.18
2019-06-27T06:43:23.861Z,100059.80
2019-06-27T06:45:52.259Z,100055.09
2019-06-27T06:48:20.706Z,100060.50
2019-06-27T06:50:49.142Z,100061.33
2019-06-27T06:53:17.565Z,100048.88
2019-06-27T06:55:45.985Z,100056.48
2019-06-27T06:58:14.508Z,100054.02
2019-06-27T07:00:57.025Z,100063.27
2019-06-27T07:03:13.030Z,100064.06
2019-06-27T07:05:41.471Z,100073.16
2019-06-27T07:08:09.871Z,100063.17
2019-06-27T07:10:43.950Z,100065.46
2019-06-27T07:13:13.674Z,100063.75
2019-06-27T07:15:42.127Z,100072.00
2019-06-27T07:18:10.574Z,100076.10
2019-06-27T07:20:39.108Z,100076.48
2019-06-27T07:23:07.635Z,100071.76
2019-06-27T07:25:36.081Z,100074.77
2019-06-27T07:28:04.531Z,100067.13
2019-06-27T07:30:32.960Z,100077.44
2019-06-27T07:33:01.538Z,100080.28
2019-06-27T07:35:30.078Z,100073.55
2019-06-27T07:37:58.535Z,100072.34
2019-06-27T07:40:26.944Z,100077.55
2019-06-27T07:42:55.365Z,100069.35
2019-06-27T07:45:23.873Z,100072.97
2019-06-27T07:47:52.335Z,100076.29
2019-06-27T07:50:20.885Z,100078.97
2019-06-27T07:52:49.298Z,100084.19
2019-06-27T07:55:17.782Z,100073.23
2019-06-27T07:57:46.349Z,100088.37
2019-06-27T08:00:15.102Z,100082.33
2019-06-27T08:02:43.520Z,100080.30
2019-06-27T08:05:12.263Z,100068.48
2019-06-27T08:07:40.926Z,100068.48
2019-06-27T08:10:09.771Z,100071.73
2019-06-27T08:12:42.094Z,100071.73
2019-06-27T08:15:08.768Z,100076.41
2019-06-27T08:17:37.197Z,100068.16
2019-06-27T08:20:07.273Z,100075.34
2019-06-27T08:22:35.690Z,100078.07
2019-06-27T08:25:05.558Z,100072.44
2019-06-27T08:27:33.981Z,100067.23
2019-06-27T08:30:02.442Z,100075.70
2019-06-27T08:32:30.910Z,100074.82
2019-06-27T08:34:59.286Z,100070.95
2019-06-27T08:37:27.850Z,100072.51
2019-06-27T08:39:56.317Z,100067.29
2019-06-27T08:42:24.759Z,100068.08
2019-06-27T08:44:53.249Z,100070.24
2019-06-27T08:47:23.046Z,100070.81
2019-06-27T08:49:51.623Z,100067.11
2019-06-27T08:52:20.034Z,100061.69
2019-06-27T08:54:48.659Z,100063.89
2019-06-27T08:57:17.056Z,100065.84
2019-06-27T08:59:45.496Z,100057.94
2019-06-27T09:02:13.963Z,100064.34
2019-06-27T09:04:42.398Z,100059.17
2019-06-27T09:07:10.848Z,100059.78
2019-06-27T09:09:39.318Z,100059.90
2019-06-27T09:12:07.712Z,100063.64
2019-06-27T09:14:36.135Z,100060.99
2019-06-27T09:17:04.658Z,100064.13
2019-06-27T09:19:33.115Z,100058.63
2019-06-27T09:22:01.584Z,100061.34
2019-06-27T09:24:30.957Z,100053.84
2019-06-27T09:26:59.418Z,100041.45
2019-06-27T09:29:27.853Z,100048.33
2019-06-27T09:31:56.296Z,100053.34
2019-06-27T09:34:24.722Z,100049.61
2019-06-27T09:36:53.172Z,100046.87
2019-06-27T09:39:21.598Z,100049.95
2019-06-27T09:41:50.047Z,100050.37
2019-06-27T09:44:18.508Z,100051.63
2019-06-27T09:46:46.929Z,100043.79
2019-06-27T09:49:15.363Z,100045.65
2019-06-27T09:51:43.818Z,100055.30
2019-06-27T09:54:12.231Z,100043.72
2019-06-27T09:56:40.641Z,100048.48
2019-06-27T09:59:09.067Z,100040.30
2019-06-27T10:01:37.557Z,100035.12
2019-06-27T10:04:05.926Z,100038.80
2019-06-27T10:06:34.374Z,100032.63
2019-06-27T10:09:02.883Z,100037.56
2019-06-27T10:11:31.479Z,100028.30
2019-06-27T10:13:59.925Z,100028.02
2019-06-27T10:16:28.463Z,100028.55
2019-06-27T10:18:56.875Z,100030.05
2019-06-27T10:21:25.380Z,100025.91
2019-06-27T10:23:53.852Z,100030.47
2019-06-27T10:26:22.262Z,100026.44
2019-06-27T10:28:50.738Z,100031.39
2019-06-27T10:31:19.223Z,100026.50
2019-06-27T10:33:47.672Z,100020.09
2019-06-27T10:36:16.171Z,100021.19
2019-06-27T10:38:44.623Z,100021.52
2019-06-27T10:41:13.050Z,100016.45
2019-06-27T10:43:41.531Z,100019.94
2019-06-27T10:46:09.933Z,100017.71
2019-06-27T10:48:38.388Z,100012.19
2019-06-27T10:51:06.871Z,100004.31
2019-06-27T10:53:35.300Z,100006.66
2019-06-27T10:56:03.745Z,100009.97
2019-06-27T10:58:32.179Z,100005.55
2019-06-27T11:01:00.607Z,100009.48
2019-06-27T11:03:29.053Z,100013.37
2019-06-27T11:05:57.448Z,100012.66
2019-06-27T11:08:25.884Z,100007.52
2019-06-27T11:10:55.437Z,99999.85
2019-06-27T11:13:24.050Z,99999.85
2019-06-27T11:15:52.457Z,100006.69
2019-06-27T11:18:21.582Z,100001.16
2019-06-27T11:20:50.089Z,99995.64
2019-06-27T11:23:18.511Z,99994.56
2019-06-27T11:25:46.954Z,99985.23
2019-06-27T11:28:15.419Z,99989.32
2019-06-27T11:30:43.829Z,99979.30
2019-06-27T11:33:12.255Z,99981.47
2019-06-27T11:35:40.696Z,99982.88
2019-06-27T11:38:09.123Z,99980.55
2019-06-27T11:40:37.610Z,99972.61
2019-06-27T11:43:06.017Z,99976.30
2019-06-27T11:45:34.442Z,99975.42
2019-06-27T11:48:02.867Z,99972.45
2019-06-27T11:50:31.473Z,99978.07
2019-06-27T11:52:59.935Z,99974.77
2019-06-27T11:55:28.440Z,99977.03
2019-06-27T11:57:56.940Z,99971.63
2019-06-27T12:00:25.504Z,99976.41
2019-06-27T12:02:53.902Z,99969.74
2019-06-27T12:05:22.365Z,99975.56
2019-06-27T12:07:51.010Z,99979.27
2019-06-27T12:10:20.690Z,99971.54
2019-06-27T12:12:49.120Z,99967.55
2019-06-27T12:15:17.602Z,99979.71
2019-06-27T12:17:46.305Z,99972.56
2019-06-27T12:20:15.678Z,99972.69
2019-06-27T12:22:44.129Z,99967.02
2019-06-27T12:25:12.968Z,99964.95
2019-06-27T12:27:41.428Z,99966.12
2019-06-27T12:30:10.695Z,99969.56
2019-06-27T12:32:51.053Z,99963.85
2019-06-27T12:35:09.753Z,99960.02
2019-06-27T12:37:39.842Z,99959.53
2019-06-27T12:40:10.022Z,99957.70
2019-06-27T12:42:38.449Z,99955.32
2019-06-27T12:45:08.428Z,99953.23
2019-06-27T12:47:36.853Z,99958.25
2019-06-27T12:50:08.731Z,99955.17
2019-06-27T12:52:37.247Z,99950.77
2019-06-27T12:55:06.976Z,99950.48
2019-06-27T12:57:35.402Z,99954.27
2019-06-27T13:00:09.045Z,99943.92
2019-06-27T13:02:37.760Z,99946.68
2019-06-27T13:05:06.962Z,99935.91
2019-06-27T13:07:35.399Z,99939.44
2019-06-27T13:10:05.567Z,99932.68
2019-06-27T13:12:33.985Z,99934.67
2019-06-27T13:15:02.553Z,99934.75
2019-06-27T13:17:31.001Z,99934.88
2019-06-27T13:19:59.423Z,99931.67
2019-06-27T13:22:27.840Z,99926.39
2019-06-27T13:24:56.406Z,99929.80
2019-06-27T13:27:24.888Z,99927.34
2019-06-27T13:29:53.310Z,99924.12
2019-06-27T13:32:25.340Z,99919.40
2019-06-27T13:34:53.236Z,99912.77
2019-06-27T13:37:21.658Z,99918.21
2019-06-27T13:39:50.090Z,99918.63
2019-06-27T13:42:18.506Z,99918.98
2019-06-27T13:44:47.041Z,99921.09
2019-06-27T13:47:15.548Z,99917.34
2019-06-27T13:49:45.257Z,99910.20
2019-06-27T13:52:14.004Z,99916.53
2019-06-27T13:54:42.472Z,99912.16
2019-06-27T13:57:10.906Z,99915.48
2019-06-27T13:59:40.512Z,99912.94
2019-06-27T14:02:08.921Z,99908.43
2019-06-27T14:04:37.424Z,99904.13
2019-06-27T14:07:05.838Z,99900.44
2019-06-27T14:09:47.690Z,99891.25
2019-06-27T14:12:05.006Z,99899.77
2019-06-27T14:14:33.612Z,99898.82
2019-06-27T14:17:02.106Z,99896.83
2019-06-27T14:19:30.815Z,99890.25
2019-06-27T14:21:59.561Z,99889.88
2019-06-27T14:24:28.225Z,99885.94
2019-06-27T14:26:56.615Z,99889.97
2019-06-27T14:29:25.091Z,99894.48
2019-06-27T14:31:53.664Z,99884.02
2019-06-27T14:34:22.227Z,99893.60
2019-06-27T14:36:54.286Z,99898.14
2019-06-27T14:39:21.754Z,99885.75
2019-06-27T14:41:50.239Z,99891.48
2019-06-27T14:44:18.642Z,99882.75
2019-06-27T14:46:47.137Z,99889.94
2019-06-27T14:49:15.678Z,99886.37
2019-06-27T14:51:44.620Z,99883.00
2019-06-27T14:54:13.040Z,99879.05
2019-06-27T14:56:41.710Z,99879.00
2019-06-27T14:59:14.151Z,99881.77
2019-06-27T15:01:40.806Z,99888.15
2019-06-27T15:04:09.220Z,99890.30
2019-06-27T15:06:37.796Z,99881.27
2019-06-27T15:09:06.187Z,99881.00
2019-06-27T15:11:34.667Z,99888.44
2019-06-27T15:14:03.081Z,99876.17
2019-06-27T15:16:31.476Z,99867.41
2019-06-27T15:18:59.922Z,99877.60
2019-06-27T15:21:28.425Z,99873.48
2019-06-27T15:23:56.874Z,99868.83
2019-06-27T15:26:25.366Z,99873.05
2019-06-27T15:28:53.845Z,99879.37
2019-06-27T15:31:22.650Z,99869.17
2019-06-27T15:33:51.045Z,99873.03
2019-06-27T15:36:19.477Z,99873.17
2019-06-27T15:38:47.902Z,99877.05
2019-06-27T15:41:16.368Z,99882.92
2019-06-27T15:43:44.804Z,99875.81
2019-06-27T15:46:13.230Z,99868.70
2019-06-27T15:48:41.682Z,99875.22
2019-06-27T15:51:10.102Z,99873.34
2019-06-27T15:53:38.904Z,99869.52
2019-06-27T15:56:07.340Z,99872.98
2019-06-27T15:58:35.783Z,99876.50
2019-06-27T16:01:04.200Z,99866.89
2019-06-27T16:03:32.617Z,99863.34
2019-06-27T16:06:09.171Z,99864.37
2019-06-27T16:08:31.249Z,99861.80
2019-06-27T16:10:59.709Z,99869.60
2019-06-27T16:13:28.132Z,99856.47
2019-06-27T16:15:56.583Z,99859.39
2019-06-27T16:18:27.592Z,99851.49
2019-06-27T16:20:57.151Z,99849.16
2019-06-27T16:23:25.749Z,99849.43
2019-06-27T16:25:54.268Z,99845.34
2019-06-27T16:28:22.654Z,99845.86
2019-06-27T16:30:51.083Z,99841.03
2019-06-27T16:33:19.632Z,99840.94
2019-06-27T16:35:48.050Z,99844.34
2019-06-27T16:38:16.492Z,99853.22
2019-06-27T16:40:44.927Z,99847.13
2019-06-27T16:43:13.356Z,99846.53
2019-06-27T16:45:41.806Z,99842.03
2019-06-27T16:48:10.306Z,99842.70
2019-06-27T16:50:38.744Z,99839.84
2019-06-27T16:53:07.143Z,99844.65
2019-06-27T16:55:36.507Z,99848.30
2019-06-27T16:58:04.980Z,99844.11
2019-06-27T17:00:33.424Z,99849.27
2019-06-27T17:03:01.851Z,99844.37
2019-06-27T17:05:30.287Z,99845.58
2019-06-27T17:07:58.728Z,99844.12
2019-06-27T17:10:27.137Z,99840.41
2019-06-27T17:12:55.568Z,99844.23
2019-06-27T17:15:24.225Z,99845.09
2019-06-27T17:17:52.726Z,99841.09
2019-06-27T17:20:24.130Z,99845.97
2019-06-27T17:22:52.661Z,99842.97
2019-06-27T17:25:21.061Z,99849.11
2019-06-27T17:27:51.685Z,99846.48
2019-06-27T17:30:22.763Z,99844.91
2019-06-27T17:32:51.944Z,99847.02
2019-06-27T17:35:20.496Z,99846.11
2019-06-27T17:37:48.947Z,99851.88
2019-06-27T17:40:17.819Z,99851.42
2019-06-27T17:42:46.265Z,99851.99
2019-06-27T17:45:15.125Z,99849.75
2019-06-27T17:47:43.611Z,99853.97
2019-06-27T17:50:12.260Z,99855.19
2019-06-27T17:52:40.734Z,99857.71
2019-06-27T17:55:09.607Z,99851.11
2019-06-27T17:57:38.029Z,99850.95
2019-06-27T18:00:07.060Z,99848.87
2019-06-27T18:02:36.856Z,99856.37
2019-06-27T18:05:06.364Z,99853.61
2019-06-27T18:07:35.239Z,99856.47
2019-06-27T18:10:04.860Z,99858.50
2019-06-27T18:12:33.348Z,99853.84
2019-06-27T18:15:01.797Z,99856.55
2019-06-27T18:17:33.925Z,99852.70
2019-06-27T18:20:00.407Z,99853.06
2019-06-27T18:22:28.800Z,99849.37
2019-06-27T18:24:57.261Z,99848.21
2019-06-27T18:27:25.778Z,99849.37
2019-06-27T18:29:54.224Z,99845.74
2019-06-27T18:32:22.665Z,99845.42
2019-06-27T18:34:51.111Z,99839.50
2019-06-27T18:37:29.165Z,99845.92
2019-06-27T18:39:50.005Z,99837.23
2019-06-27T18:42:18.526Z,99836.84
2019-06-27T18:44:46.974Z,99835.11
2019-06-27T18:47:15.442Z,99840.64
2019-06-27T18:49:44.909Z,99835.00
2019-06-27T18:52:13.494Z,99834.34
2019-06-27T18:54:41.967Z,99839.90
2019-06-27T18:57:10.488Z,99837.52
2019-06-27T18:59:38.900Z,99835.75
2019-06-27T19:02:08.511Z,99838.61
2019-06-27T19:04:39.554Z,99831.03
2019-06-27T19:07:09.741Z,99833.81
2019-06-27T19:09:38.280Z,99835.57
2019-06-27T19:12:06.683Z,99830.91
2019-06-27T19:14:35.097Z,99829.32
2019-06-27T19:17:03.595Z,99830.20
2019-06-27T19:19:36.235Z,99838.02
2019-06-27T19:22:09.533Z,99833.67
2019-06-27T19:24:42.324Z,99840.30
2019-06-27T19:27:10.730Z,99839.98
2019-06-27T19:29:39.213Z,99839.25
2019-06-27T19:32:07.630Z,99841.70
2019-06-27T19:34:36.063Z,99835.53
2019-06-27T19:37:04.555Z,99840.41
2019-06-27T19:39:32.972Z,99841.87
2019-06-27T19:42:01.668Z,99842.91
2019-06-27T19:44:30.110Z,99848.05
2019-06-27T19:46:58.581Z,99842.19
2019-06-27T19:49:27.080Z,99844.28
2019-06-27T19:51:55.518Z,99850.35
2019-06-27T19:54:23.933Z,99855.65
2019-06-27T19:56:52.329Z,99857.63
2019-06-27T19:59:20.777Z,99865.78
2019-06-27T20:01:49.190Z,99866.54
2019-06-27T20:04:17.710Z,99870.41
2019-06-27T20:06:46.152Z,99865.11
2019-06-27T20:09:14.580Z,99872.53
2019-06-27T20:11:43.006Z,99881.95
2019-06-27T20:14:11.470Z,99881.70
2019-06-27T20:16:39.893Z,99879.78
2019-06-27T20:19:08.350Z,99882.35
2019-06-27T20:21:36.761Z,99887.73
2019-06-27T20:24:05.217Z,99886.94
2019-06-27T20:26:33.676Z,99889.82
2019-06-27T20:29:02.113Z,99887.05
2019-06-27T20:31:30.589Z,99888.16
2019-06-27T20:33:59.018Z,99893.95
2019-06-27T20:36:27.446Z,99896.45
2019-06-27T20:38:55.940Z,99894.53
2019-06-27T20:41:24.828Z,99903.87
2019-06-27T20:43:53.299Z,99901.87
2019-06-27T20:46:21.912Z,99903.27
2019-06-27T20:48:53.733Z,99906.14
2019-06-27T20:51:21.444Z,99905.02
2019-06-27T20:53:49.890Z,99909.47
2019-06-27T20:56:18.311Z,99913.50
2019-06-27T20:58:46.853Z,99912.60
2019-06-27T21:01:15.295Z,99917.19
2019-06-27T21:03:43.819Z,99918.62
2019-06-27T21:06:12.230Z,99913.34
2019-06-27T21:08:50.729Z,99910.31
2019-06-27T21:11:11.153Z,99908.48
2019-06-27T21:13:39.626Z,99913.72
2019-06-27T21:16:08.161Z,99912.15
2019-06-27T21:18:37.195Z,99912.48
2019-06-27T21:21:05.771Z,99909.95
2019-06-27T21:23:34.264Z,99915.72
2019-06-27T21:26:04.293Z,99911.21
2019-06-27T21:28:32.787Z,99918.70
2019-06-27T21:31:01.587Z,99913.92
2019-06-27T21:33:30.129Z,99913.38
2019-06-27T21:35:58.578Z,99914.70
2019-06-27T21:38:28.631Z,99909.98
2019-06-27T21:40:57.625Z,99920.48
2019-06-27T21:43:26.036Z,99922.82
2019-06-27T21:45:54.585Z,99927.17
2019-06-27T21:48:23.035Z,99926.43
2019-06-27T21:50:51.433Z,99921.68
2019-06-27T21:53:19.835Z,99926.61
2019-06-27T21:55:48.268Z,99928.19
2019-06-27T21:58:16.680Z,99927.23
2019-06-27T22:00:45.659Z,99930.02
2019-06-27T22:03:14.129Z,99931.49
2019-06-27T22:05:43.452Z,99934.06
2019-06-27T22:08:11.860Z,99930.43
2019-06-27T22:10:40.366Z,99925.34
2019-06-27T22:13:08.901Z,99918.63
2019-06-27T22:15:37.303Z,99926.07
2019-06-27T22:18:05.769Z,99922.43
2019-06-27T22:20:34.339Z,99917.23
2019-06-27T22:23:02.799Z,99916.30
2019-06-27T22:25:40.552Z,99910.44
2019-06-27T22:28:02.404Z,99910.72
2019-06-27T22:30:31.000Z,99911.24
2019-06-27T22:33:00.255Z,99913.02
2019-06-27T22:35:28.705Z,99906.05
2019-06-27T22:38:15.160Z,99907.81
2019-06-27T22:41:01.356Z,99902.54
2019-06-27T22:43:47.151Z,99902.48
2019-06-27T22:46:33.733Z,99906.63
2019-06-27T22:49:01.572Z,99906.08
2019-06-27T22:51:31.755Z,99901.94
2019-06-27T22:54:02.243Z,99901.77
2019-06-27T22:56:30.873Z,99899.61
2019-06-27T22:58:59.271Z,99902.63
2019-06-27T23:01:27.711Z,99896.04
2019-06-27T23:03:56.147Z,99897.80
2019-06-27T23:06:24.553Z,99894.40
2019-06-27T23:08:52.979Z,99892.41
2019-06-27T23:11:21.409Z,99892.41
2019-06-27T23:13:49.836Z,99895.17
2019-06-27T23:16:18.250Z,99891.01
2019-06-27T23:18:46.653Z,99888.54
2019-06-27T23:21:15.074Z,99890.94
2019-06-27T23:23:43.502Z,99882.52
2019-06-27T23:26:11.900Z,99890.17
2019-06-27T23:28:40.364Z,99889.49
2019-06-27T23:31:08.801Z,99884.94
2019-06-27T23:33:37.237Z,99885.63
2019-06-27T23:36:05.639Z,99892.89
2019-06-27T23:38:34.081Z,99890.54
2019-06-27T23:41:02.541Z,99889.67
2019-06-27T23:43:30.930Z,99887.12
2019-06-27T23:45:59.407Z,99885.30
2019-06-27T23:48:27.856Z,99889.38
2019-06-27T23:50:56.704Z,99883.50
2019-06-27T23:53:25.136Z,99881.08
2019-06-27T23:55:53.566Z,99885.20
2019-06-27T23:58:21.978Z,99883.81
